Northeast Madison, Pennsylvania
Current Conditions -  °F | °C
As of 10:56 PM on Tuesday 25 Nov 2014 (Local Time) from KCXY Reporting Station
Clear Clear  
Wind Chill: 37°   Ceiling: Unl
Heat Index: 37°   Visibility: 10mi
Dew Point: 31°   Wind: 3mph
Humidity: 79%   Direction: 230°SW
Pressure: 30.15"   Gusts: NA
Location:  40.3674°N, 77.4381°W
Report Text: KCXY 260356Z AUTO 23003KT 10SM CLR 03/M01 A3015 RMK AO2 SLP214 T00281006
Loading
Personal Weather Stations






























Interactive Weather Map New forecast layout! Learn more

10-Day Weather Forecast

Advertisements
Track Severe Weather on mobile